createdAt,value
2019-01-30T00:02:46.858Z,1.03
2019-01-30T00:07:46.892Z,1.08
2019-01-30T00:12:47.232Z,0.91
2019-01-30T00:17:47.670Z,1.13
2019-01-30T00:22:48.745Z,1.12
2019-01-30T00:27:51.054Z,1.09
2019-01-30T00:32:52.333Z,1.05
2019-01-30T00:37:53.384Z,1.15
2019-01-30T00:42:54.520Z,0.98
2019-01-30T00:47:55.738Z,1.04
2019-01-30T00:52:56.750Z,1.12
2019-01-30T00:57:57.852Z,1.15
2019-01-30T01:03:00.893Z,1.11
2019-01-30T01:08:00.972Z,1.12
2019-01-30T01:13:02.568Z,1.01
2019-01-30T01:18:03.866Z,0.95
2019-01-30T01:23:04.293Z,0.99
2019-01-30T01:29:12.902Z,1.07
2019-01-30T01:34:14.372Z,1.00
2019-01-30T01:39:15.766Z,0.88
2019-01-30T01:44:16.816Z,0.83
2019-01-30T01:49:18.004Z,0.95
2019-01-30T01:54:19.107Z,0.98
2019-01-30T01:59:20.142Z,0.95
2019-01-30T02:04:21.240Z,0.91
2019-01-30T02:09:22.276Z,1.01
2019-01-30T02:14:23.334Z,1.01
2019-01-30T02:19:24.429Z,0.87
2019-01-30T02:24:25.346Z,1.00
2019-01-30T02:29:26.463Z,0.99
2019-01-30T02:34:26.645Z,0.93
2019-01-30T02:39:27.789Z,0.88
2019-01-30T02:44:28.054Z,0.83
2019-01-30T02:49:29.149Z,1.00
2019-01-30T02:54:30.117Z,0.84
2019-01-30T02:59:31.525Z,0.93
2019-01-30T03:04:31.760Z,0.89
2019-01-30T03:09:33.280Z,0.76
2019-01-30T03:15:41.598Z,0.83
2019-01-30T03:20:42.636Z,0.87
2019-01-30T03:25:43.708Z,0.94
2019-01-30T03:30:44.733Z,0.96
2019-01-30T03:35:45.007Z,0.75
2019-01-30T03:40:46.073Z,0.90
2019-01-30T03:45:47.026Z,1.01
2019-01-30T03:50:48.422Z,0.74
2019-01-30T03:55:50.875Z,0.97
2019-01-30T04:00:52.006Z,0.92
2019-01-30T04:05:52.186Z,0.94
2019-01-30T04:10:53.158Z,0.75
2019-01-30T04:15:53.321Z,0.86
2019-01-30T04:20:54.504Z,0.84
2019-01-30T04:25:54.762Z,0.90
2019-01-30T04:30:56.002Z,0.92
2019-01-30T04:35:56.270Z,0.89
2019-01-30T04:40:57.480Z,1.92
2019-01-30T04:45:58.528Z,2.94
2019-01-30T04:50:59.564Z,3.16
2019-01-30T04:56:00.097Z,1.84
2019-01-30T05:01:02.575Z,1.87
2019-01-30T05:06:03.761Z,1.83
2019-01-30T05:11:05.011Z,2.82
2019-01-30T05:17:12.756Z,3.25
2019-01-30T05:22:13.780Z,3.20
2019-01-30T05:27:14.048Z,3.16
2019-01-30T05:32:15.352Z,3.77
2019-01-30T05:37:17.700Z,3.78
2019-01-30T05:42:18.737Z,4.36
2019-01-30T05:47:19.820Z,3.28
2019-01-30T05:52:20.990Z,2.82
2019-01-30T05:57:22.152Z,2.88
2019-01-30T06:02:23.499Z,2.45
2019-01-30T06:07:24.684Z,2.88
2019-01-30T06:12:25.810Z,2.76
2019-01-30T06:17:26.838Z,2.73
2019-01-30T06:22:27.191Z,2.45
2019-01-30T06:27:28.274Z,2.44
2019-01-30T06:32:29.735Z,2.34
2019-01-30T06:37:30.025Z,2.16
2019-01-30T06:42:31.148Z,2.53
2019-01-30T06:47:32.044Z,2.03
2019-01-30T06:52:32.276Z,2.06
2019-01-30T06:57:33.428Z,2.31
2019-01-30T07:02:34.598Z,2.11
2019-01-30T07:07:35.734Z,1.89
2019-01-30T07:13:44.690Z,2.15
2019-01-30T07:18:45.941Z,1.90
2019-01-30T07:23:47.024Z,1.97
2019-01-30T07:28:48.053Z,2.23
2019-01-30T07:33:50.888Z,1.84
2019-01-30T07:38:52.053Z,1.94
2019-01-30T07:43:53.094Z,2.04
2019-01-30T07:48:54.204Z,1.82
2019-01-30T07:53:54.897Z,1.78
2019-01-30T07:59:04.278Z,1.93
2019-01-30T08:04:05.412Z,1.75
2019-01-30T08:09:11.710Z,1.86
2019-01-30T08:14:12.794Z,1.81
2019-01-30T08:19:13.793Z,1.80
2019-01-30T08:24:14.478Z,1.73
2019-01-30T08:29:23.891Z,1.72
2019-01-30T08:34:24.295Z,1.77
2019-01-30T08:39:25.536Z,1.55
2019-01-30T08:44:26.696Z,1.55
2019-01-30T08:49:27.909Z,1.61
2019-01-30T08:54:28.068Z,1.62
2019-01-30T08:59:28.381Z,1.60
2019-01-30T09:04:28.678Z,1.67
2019-01-30T09:09:30.075Z,1.67
2019-01-30T09:15:38.438Z,1.59
2019-01-30T09:20:40.558Z,1.68
2019-01-30T09:25:41.749Z,1.62
2019-01-30T09:30:42.757Z,1.57
2019-01-30T09:35:43.029Z,1.63
2019-01-30T09:40:44.089Z,1.57
2019-01-30T09:45:45.292Z,1.80
2019-01-30T09:50:46.380Z,1.46
2019-01-30T09:55:46.577Z,1.72
2019-01-30T10:00:47.586Z,1.77
2019-01-30T10:05:48.794Z,1.60
2019-01-30T10:10:50.022Z,1.35
2019-01-30T10:15:51.126Z,1.41
2019-01-30T10:20:52.540Z,1.36
2019-01-30T10:25:53.696Z,1.47
2019-01-30T10:30:54.794Z,1.42
2019-01-30T10:35:55.890Z,1.80
2019-01-30T10:40:56.466Z,1.53
2019-01-30T10:45:57.556Z,1.75
2019-01-30T10:50:58.816Z,1.53
2019-01-30T10:56:00.049Z,1.72
2019-01-30T11:01:00.358Z,1.56
2019-01-30T11:06:00.638Z,1.58
2019-01-30T11:12:09.405Z,1.47
2019-01-30T11:17:10.353Z,1.93
2019-01-30T11:22:11.200Z,3.31
2019-01-30T11:27:12.220Z,6.47
2019-01-30T11:32:12.526Z,6.97
2019-01-30T11:37:13.473Z,5.61
2019-01-30T11:42:14.586Z,5.37
2019-01-30T11:47:14.852Z,5.16
2019-01-30T11:52:14.839Z,5.02
2019-01-30T11:57:25.894Z,5.04
2019-01-30T12:02:26.945Z,4.65
2019-01-30T12:07:27.926Z,4.53
2019-01-30T12:12:29.204Z,4.41
2019-01-30T12:17:29.748Z,4.70
2019-01-30T12:22:30.752Z,4.69
2019-01-30T12:27:33.513Z,4.73
2019-01-30T12:32:33.714Z,4.55
2019-01-30T12:37:34.648Z,4.44
2019-01-30T12:42:35.212Z,4.16
2019-01-30T12:47:36.196Z,4.62
2019-01-30T12:52:36.480Z,4.51
2019-01-30T12:57:37.489Z,4.41
2019-01-30T13:02:38.794Z,4.29
2019-01-30T13:07:39.072Z,4.66
2019-01-30T13:12:39.104Z,4.47
2019-01-30T13:18:47.330Z,4.28
2019-01-30T13:23:47.493Z,4.11
2019-01-30T13:28:48.376Z,4.11
2019-01-30T13:33:49.468Z,4.32
2019-01-30T13:38:49.732Z,4.17
2019-01-30T13:43:50.001Z,3.80
2019-01-30T13:48:51.062Z,3.85
2019-01-30T13:53:52.116Z,4.12
2019-01-30T13:58:52.973Z,3.95
2019-01-30T14:03:54.303Z,3.99
2019-01-30T14:08:54.626Z,3.95
2019-01-30T14:13:54.790Z,3.92
2019-01-30T14:18:57.078Z,3.75
2019-01-30T14:23:57.307Z,3.94
2019-01-30T14:28:58.279Z,4.03
2019-01-30T14:33:58.882Z,3.82
2019-01-30T14:39:09.486Z,3.95
2019-01-30T14:44:11.105Z,3.85
2019-01-30T14:49:12.325Z,3.98
2019-01-30T14:54:14.142Z,3.77
2019-01-30T14:59:15.845Z,3.63
2019-01-30T15:04:16.804Z,3.98
2019-01-30T15:10:24.735Z,3.97
2019-01-30T15:15:24.938Z,3.79
2019-01-30T15:20:25.096Z,3.89
2019-01-30T15:25:26.288Z,3.49
2019-01-30T15:30:26.544Z,3.88
2019-01-30T15:35:33.612Z,3.64
2019-01-30T15:40:27.542Z,3.62
2019-01-30T15:45:27.844Z,3.55
2019-01-30T15:50:29.156Z,3.74
2019-01-30T15:55:30.231Z,3.57
2019-01-30T16:00:31.481Z,3.71
2019-01-30T16:05:32.668Z,3.75
2019-01-30T16:10:33.576Z,3.50
2019-01-30T16:15:34.213Z,3.48
2019-01-30T16:20:36.286Z,3.55
2019-01-30T16:25:38.189Z,3.46
2019-01-30T16:30:42.245Z,3.60
2019-01-30T16:35:41.585Z,3.38
2019-01-30T16:40:43.961Z,3.34
2019-01-30T16:45:46.946Z,4.14
2019-01-30T16:50:49.133Z,3.97
2019-01-30T16:55:50.981Z,3.87
2019-01-30T17:02:01.166Z,3.89
2019-01-30T17:07:05.391Z,3.83
2019-01-30T17:12:07.246Z,4.21
2019-01-30T17:17:09.000Z,3.72
2019-01-30T17:22:11.345Z,4.28
2019-01-30T17:27:13.496Z,3.97
2019-01-30T17:32:16.634Z,4.52
2019-01-30T17:37:19.950Z,4.33
2019-01-30T17:42:22.951Z,5.14
2019-01-30T17:47:25.760Z,4.86
2019-01-30T17:52:30.125Z,5.24
2019-01-30T17:57:33.296Z,5.48
2019-01-30T18:03:05.038Z,5.65
2019-01-30T18:07:44.532Z,6.23
2019-01-30T18:12:48.919Z,7.36
2019-01-30T18:17:54.321Z,7.80
2019-01-30T18:22:55.181Z,7.84
2019-01-30T18:27:59.214Z,8.07
2019-01-30T18:33:02.322Z,8.30
2019-01-30T18:38:05.332Z,8.04
2019-01-30T18:43:15.704Z,8.21
2019-01-30T18:48:08.170Z,8.44
2019-01-30T18:54:18.542Z,7.97
2019-01-30T18:59:23.697Z,7.51
2019-01-30T19:04:26.607Z,7.93
2019-01-30T19:09:29.310Z,7.58
2019-01-30T19:14:31.215Z,22.79
2019-01-30T19:19:35.063Z,26.46
2019-01-30T19:24:37.765Z,36.98
2019-01-30T19:29:40.595Z,25.49
2019-01-30T19:34:45.170Z,23.86
2019-01-30T19:39:48.086Z,20.94
2019-01-30T19:44:50.557Z,18.81
2019-01-30T19:49:54.197Z,17.28
2019-01-30T19:54:57.727Z,16.34
2019-01-30T20:00:01.483Z,15.44
2019-01-30T20:05:04.108Z,14.82
2019-01-30T20:10:06.063Z,14.51
2019-01-30T20:15:09.316Z,13.14
2019-01-30T20:20:11.250Z,13.97
2019-01-30T20:25:13.461Z,12.34
2019-01-30T20:30:15.812Z,13.06
2019-01-30T20:35:18.690Z,11.21
2019-01-30T20:40:21.503Z,11.77
2019-01-30T20:45:33.586Z,11.70
2019-01-30T20:50:24.591Z,11.16
2019-01-30T20:56:32.710Z,11.16
2019-01-30T21:01:33.203Z,10.26
2019-01-30T21:06:34.246Z,9.67
2019-01-30T21:11:34.029Z,9.06
2019-01-30T21:16:45.075Z,8.74
2019-01-30T21:21:45.748Z,8.63
2019-01-30T21:26:46.420Z,8.31
2019-01-30T21:31:47.088Z,8.49
2019-01-30T21:36:46.885Z,8.60
2019-01-30T21:41:57.647Z,8.46
2019-01-30T21:47:01.391Z,8.12
2019-01-30T21:51:59.523Z,7.45
2019-01-30T21:57:00.178Z,7.98
2019-01-30T22:02:08.022Z,7.71
2019-01-30T22:07:01.021Z,7.24
2019-01-30T22:12:01.762Z,7.46
2019-01-30T22:17:02.541Z,7.91
2019-01-30T22:22:02.352Z,7.62
2019-01-30T22:27:13.064Z,7.29
2019-01-30T22:32:13.849Z,7.15
2019-01-30T22:37:13.662Z,7.10
2019-01-30T22:42:23.872Z,7.42
2019-01-30T22:47:24.618Z,7.00
2019-01-30T22:52:25.364Z,7.07
2019-01-30T22:58:33.518Z,7.05
2019-01-30T23:03:34.238Z,6.93
2019-01-30T23:08:34.045Z,6.80
2019-01-30T23:13:43.890Z,7.33
2019-01-30T23:18:54.701Z,6.67
2019-01-30T23:23:55.137Z,6.98
2019-01-30T23:28:55.843Z,6.43
2019-01-30T23:33:56.553Z,6.72
2019-01-30T23:38:56.333Z,6.48
2019-01-30T23:44:07.082Z,6.36
2019-01-30T23:49:06.946Z,6.07
2019-01-30T23:54:16.777Z,6.17
2019-01-30T23:59:27.793Z,5.76
